BUCHANAN DAM (BUC)

Elevation: 450' · CHOWCHILLA R basin · Operator: US Army Corps of Engineers

Provisional data, subject to change.
Query executed Friday at 10:00:00   clock

Select a sensor type for a plot of data.
Note: Reservoir Flows are daily averages.

Earlier

Date RES ELE    STORAGE    RES CHG    TOC STO    ABV TOC    OUTFLOW    INFLOW    PPT INC    TEMP MN    TEMP MX   
 FEET   AF   AF   AF   AF   CFS   CFS   INCHES   DEG F   DEG F  
11/03/2016 468.63 11468 -5 118352 -106884 0 -1 -- 45 75
11/04/2016 468.62 11463 -5 117857 -106394 0 -1 -- 46 79
11/05/2016 468.61 11457 -6 117363 -105906 0 -1 -- 47 77
11/06/2016 468.61 11457 0 116868 -105411 0 1 -- 48 69
11/07/2016 468.61 11457 0 116374 -104917 0 2 -- 50 75
11/08/2016 468.60 11452 -5 115879 -104427 0 -1 -- 50 78
11/09/2016 468.60 11452 0 115385 -103933 0 2 -- 49 80
11/10/2016 468.59 11447 -5 114890 -103443 0 -1 -- 51 81
11/11/2016 468.59 11447 0 114396 -102949 0 2 -- 52 85
11/12/2016 468.59 11447 -- 113901 -102454 0 2 -- 11 26
11/13/2016 468.59 11447 0 113407 -101960 0 2 -- 8 26
11/14/2016 468.59 11447 0 112912 -101465 0 2 -- 9 27
11/15/2016 468.60 11452 -- 112418 -100966 0 4 -- 8 27
11/16/2016 468.58 11442 -10 111923 -100481 0 -4 -- 5 16
11/17/2016 468.58 11442 0 111429 -99987 0 1 -- 1 17
11/18/2016 468.56 11431 -11 110934 -99503 0 -3 -- 3 22
11/19/2016 468.56 11431 -- 110440 -99009 0 2 -- 9 22
11/20/2016 468.59 11447 -- 109945 -98498 0 9 -- 9 18
11/21/2016 468.60 11452 5 109451 -97999 0 3 -- 6 15
11/22/2016 468.61 11457 5 108956 -97499 0 4 -- 4 16
11/23/2016 468.61 11457 0 108462 -97005 0 1 -- 4 16
11/24/2016 468.62 11463 6 107967 -96504 0 4 -- 2 17
11/25/2016 468.62 11463 0 107473 -96010 0 1 -- 1 16
11/26/2016 468.65 11478 15 106978 -95500 0 9 -- 5 16
11/27/2016 468.71 11509 31 106484 -94975 0 17 -- 6 14
11/28/2016 468.77 11540 31 105989 -94449 0 16 -- 8 12
11/29/2016 468.82 11566 26 105495 -93929 0 14 -- 3 14
11/30/2016 468.85 11582 16 105000 -93418 0 9 -- 2 15
12/01/2016 468.87 11592 10 105000 -93408 0 5 -- 3 9
12/02/2016 -- -- -- -- -- -- -- -- -- --

Later | Latest

Warning! This data is preliminary and subject to revision.

Show BUC Map | Plot BUC Data | 1 Month BUC Data | Real-Time BUC Data | BUC Info